Jamestown, NY

9:22 PM EDT on April 28, 2017 (GMT -0400)
Chautauqua County-Jamestown

Weather History for KJHW - January, 2014

Change the Weather History Date:

Monday, January 13, 2014

  Actual Average Record
Temperature  
Mean Temperature 38 °F -  
Max Temperature 46 °F 29 °F 60 °F (2005)
Min Temperature 30 °F 10 °F -25 °F (1981)
Degree Days  
Heating Degree Days 27    
Moisture  
Dew Point 31 °F    
Average Humidity 73    
Maximum Humidity 93    
Minimum Humidity 50    
Precipitation  
Precipitation 0.10 in - - ()
Sea Level Pressure  
Sea Level Pressure 29.77 in    
Wind  
Wind Speed 13 mph (SSW)    
Max Wind Speed 18 mph    
Max Gust Speed 25 mph    
Visibility 10 miles    
Events      
Averages and records for this station are not official NWS values.
T = Trace of Precipitation, MM = Missing Value Source: NWS Daily Summary

Daily Weather History Graph

Daily Weather History Graph

Search for Another Location

Airport or City:

Trip Planner

Search our weather history database for the weather conditions in past years. The results will help you decide how hot, cold, wet, or windy it might be!

Date:

Astronomy

Jan. 13, 2014 Rise Set
Actual Time 7:43 AM EST 5:08 PM EST
Civil Twilight 7:12 AM EST 5:39 PM EST
Nautical Twilight 6:38 AM EST 6:13 PM EST
Astronomical Twilight 6:04 AM EST 6:47 PM EST
Moon 3:22 PM EST (1/13) 5:30 AM EST (1/13)
Length of Visible Light 10h 26m
Length of Day
9h 24m
Waxing Gibbous, 95% of the Moon is Illuminated
Jan 13
Waxing Gibbous
Jan 15
Full
Jan 24
Last Quarter
Jan 30
New
Feb 6
First Quarter

Hourly Weather History & Observations

Time (EST) Temp. Windchill Dew Point Humidity Pressure Visibility Wind Dir Wind Speed Gust Speed Precip Events Conditions
12:15 AM 30.2 °F 21.3 °F 26.6 °F 86% 29.91 in 10.0 mi South 10.4 mph 18.4 mph N/A   Clear
12:35 AM 30.2 °F 20.8 °F 26.6 °F 86% 29.90 in 10.0 mi South 11.5 mph 17.3 mph N/A   Clear
12:55 AM 30.2 °F 19.8 °F 26.6 °F 86% 29.89 in 10.0 mi South 13.8 mph - N/A   Clear
1:15 AM 32.0 °F 23.0 °F 26.6 °F 80% 29.88 in 10.0 mi South 11.5 mph 18.4 mph N/A   Clear
1:35 AM 32.0 °F 23.0 °F 26.6 °F 80% 29.88 in 10.0 mi South 11.5 mph - N/A   Clear
1:55 AM 32.0 °F 22.1 °F 26.6 °F 80% 29.88 in 10.0 mi South 13.8 mph - N/A   Clear
2:15 AM 33.8 °F 23.9 °F 26.6 °F 75% 29.88 in 10.0 mi South 15.0 mph 18.4 mph N/A   Clear
2:35 AM 33.8 °F 24.8 °F 26.6 °F 75% 29.87 in 10.0 mi South 12.7 mph - N/A   Clear
2:55 AM 33.8 °F 24.3 °F 26.6 °F 75% 29.89 in 10.0 mi SSW 13.8 mph - N/A   Clear
3:15 AM 33.8 °F 24.8 °F 26.6 °F 75% 29.87 in 10.0 mi South 12.7 mph 18.4 mph N/A   Clear
3:35 AM 33.8 °F 24.8 °F 26.6 °F 75% 29.87 in 10.0 mi South 12.7 mph - N/A   Clear
3:55 AM 33.8 °F 24.3 °F 26.6 °F 75% 29.86 in 10.0 mi SSW 13.8 mph - N/A   Clear
4:15 AM 35.6 °F 25.9 °F 26.6 °F 70% 29.85 in 10.0 mi SSW 16.1 mph 23.0 mph N/A   Clear
4:35 AM 35.6 °F 25.9 °F 26.6 °F 70% 29.85 in 10.0 mi South 16.1 mph 21.9 mph N/A   Clear
4:55 AM 35.6 °F 26.2 °F 26.6 °F 70% 29.85 in 10.0 mi SSW 15.0 mph - N/A   Clear
5:15 AM 35.6 °F 25.9 °F 26.6 °F 70% 29.85 in 10.0 mi SSW 16.1 mph - N/A   Clear
5:35 AM 35.6 °F 26.2 °F 26.6 °F 70% 29.84 in 10.0 mi SSW 15.0 mph - N/A   Clear
5:55 AM 35.6 °F 25.9 °F 26.6 °F 70% 29.83 in 10.0 mi SSW 16.1 mph 21.9 mph N/A   Clear
6:15 AM 35.6 °F 25.2 °F 26.6 °F 70% 29.83 in 10.0 mi South 18.4 mph 21.9 mph N/A   Clear
6:35 AM 35.6 °F 25.2 °F 26.6 °F 70% 29.83 in 10.0 mi SSW 18.4 mph 21.9 mph N/A   Clear
6:55 AM 37.4 °F 28.5 °F 26.6 °F 65% 29.83 in 10.0 mi SSW 15.0 mph 21.9 mph N/A   Clear
7:15 AM 37.4 °F 28.2 °F 26.6 °F 65% 29.83 in 10.0 mi South 16.1 mph 23.0 mph N/A   Clear
7:35 AM 37.4 °F 28.5 °F 26.6 °F 65% 29.82 in 10.0 mi South 15.0 mph 20.7 mph N/A   Clear
7:55 AM 37.4 °F 28.5 °F 26.6 °F 65% 29.82 in 10.0 mi South 15.0 mph 19.6 mph N/A   Clear
8:15 AM 37.4 °F 28.2 °F 26.6 °F 65% 29.82 in 10.0 mi SSW 16.1 mph 24.2 mph N/A   Clear
8:35 AM 37.4 °F 28.5 °F 26.6 °F 65% 29.82 in 10.0 mi SSW 15.0 mph 20.7 mph N/A   Clear
8:55 AM 37.4 °F 28.9 °F 26.6 °F 65% 29.82 in 10.0 mi SSW 13.8 mph 18.4 mph N/A   Clear
9:15 AM 39.2 °F 31.2 °F 26.6 °F 61% 29.81 in 10.0 mi South 13.8 mph - N/A   Clear
9:35 AM 39.2 °F 31.2 °F 26.6 °F 61% 29.80 in 10.0 mi South 13.8 mph - N/A   Clear
9:55 AM 39.2 °F 31.2 °F 26.6 °F 61% 29.81 in 10.0 mi SSW 13.8 mph 21.9 mph N/A   Clear
10:15 AM 41.0 °F 33.1 °F 26.6 °F 57% 29.81 in 10.0 mi South 15.0 mph 25.3 mph N/A   Clear
10:35 AM 41.0 °F 33.5 °F 26.6 °F 57% 29.79 in 10.0 mi South 13.8 mph 21.9 mph N/A   Clear
10:55 AM 42.8 °F 35.1 °F 26.6 °F 53% 29.78 in 10.0 mi South 16.1 mph 20.7 mph N/A   Clear
11:15 AM 42.8 °F 36.6 °F 28.4 °F 57% 29.79 in 10.0 mi South 11.5 mph 25.3 mph N/A   Clear
11:35 AM 42.8 °F 36.6 °F 28.4 °F 57% 29.77 in 10.0 mi SSW 11.5 mph 19.6 mph N/A   Clear
11:55 AM 42.8 °F 36.2 °F 28.4 °F 57% 29.76 in 10.0 mi South 12.7 mph - N/A   Clear
12:15 PM 44.6 °F 38.8 °F 28.4 °F 53% 29.76 in 10.0 mi South 11.5 mph - N/A   Clear
12:35 PM 44.6 °F 38.1 °F 28.4 °F 53% 29.74 in 10.0 mi South 13.8 mph 21.9 mph N/A   Clear
12:55 PM 44.6 °F 38.4 °F 28.4 °F 53% 29.73 in 10.0 mi SSW 12.7 mph 16.1 mph N/A   Clear
1:15 PM 46.4 °F 41.1 °F 28.4 °F 50% 29.72 in 10.0 mi South 11.5 mph 23.0 mph N/A   Clear
1:35 PM 46.4 °F 40.7 °F 30.2 °F 53% 29.72 in 10.0 mi SSW 12.7 mph 17.3 mph N/A   Partly Cloudy
1:55 PM 46.4 °F 39.8 °F 28.4 °F 50% 29.71 in 10.0 mi South 16.1 mph 19.6 mph N/A   Mostly Cloudy
2:15 PM 44.6 °F 37.8 °F 30.2 °F 57% 29.71 in 10.0 mi South 15.0 mph 20.7 mph N/A   Mostly Cloudy
2:35 PM 46.4 °F 40.4 °F 30.2 °F 53% 29.71 in 10.0 mi South 13.8 mph 19.6 mph N/A   Overcast
2:55 PM 46.4 °F 41.1 °F 28.4 °F 50% 29.71 in 10.0 mi SSW 11.5 mph 17.3 mph N/A   Overcast
3:15 PM 46.4 °F 41.1 °F 28.4 °F 50% 29.70 in 10.0 mi South 11.5 mph - N/A   Overcast
3:35 PM 44.6 °F 37.8 °F 32.0 °F 61% 29.71 in 10.0 mi SSW 15.0 mph 20.7 mph N/A   Overcast
3:55 PM 42.8 °F 36.6 °F 33.8 °F 70% 29.72 in 10.0 mi South 11.5 mph - N/A   Overcast
4:15 PM 42.8 °F 35.1 °F 35.6 °F 76% 29.73 in 7.0 mi SSW 16.1 mph 25.3 mph 0.01 in   Overcast
4:35 PM 41.0 °F 34.3 °F 37.4 °F 87% 29.73 in 9.0 mi SSW 11.5 mph 19.6 mph 0.01 in   Overcast
4:55 PM 41.0 °F 33.9 °F 37.4 °F 87% 29.73 in 9.0 mi SSW 12.7 mph 17.3 mph 0.02 in   Overcast
5:15 PM 39.2 °F 31.2 °F 37.4 °F 93% 29.72 in 10.0 mi SSW 13.8 mph - 0.01 in   Overcast
5:35 PM 39.2 °F 32.5 °F 37.4 °F 93% 29.72 in 10.0 mi SSW 10.4 mph 16.1 mph 0.01 in   Overcast
5:55 PM 41.0 °F 34.3 °F 37.4 °F 87% 29.70 in 10.0 mi South 11.5 mph - 0.01 in   Overcast
6:15 PM 41.0 °F 33.9 °F 39.2 °F 93% 29.70 in 10.0 mi South 12.7 mph - N/A   Overcast
6:35 PM 41.0 °F 33.9 °F 39.2 °F 93% 29.69 in 10.0 mi South 12.7 mph - N/A   Overcast
6:55 PM 41.0 °F 34.3 °F 39.2 °F 93% 29.70 in 10.0 mi South 11.5 mph 19.6 mph N/A   Overcast
7:15 PM 42.8 °F 37.0 °F 39.2 °F 87% 29.69 in 10.0 mi South 10.4 mph 19.6 mph N/A   Overcast
7:35 PM 42.8 °F 36.2 °F 39.2 °F 87% 29.69 in 10.0 mi SSW 12.7 mph - N/A   Overcast
7:55 PM 42.8 °F 37.0 °F 39.2 °F 87% 29.69 in 10.0 mi South 10.4 mph 16.1 mph N/A   Overcast
8:15 PM 42.8 °F 38.0 °F 39.2 °F 87% 29.68 in 10.0 mi South 8.1 mph - N/A   Overcast
8:35 PM 42.8 °F 37.5 °F 39.2 °F 87% 29.68 in 9.0 mi SSW 9.2 mph - N/A   Overcast
8:55 PM 42.8 °F 38.0 °F 39.2 °F 87% 29.68 in 10.0 mi South 8.1 mph - 0.01 in   Overcast
9:15 PM 42.8 °F 38.6 °F 41.0 °F 93% 29.68 in 10.0 mi SSW 6.9 mph - N/A   Overcast
9:35 PM 42.8 °F 38.0 °F 39.2 °F 87% 29.68 in 9.0 mi South 8.1 mph - 0.01 in   Overcast
9:55 PM 42.8 °F 38.6 °F 39.2 °F 87% 29.68 in 9.0 mi SSW 6.9 mph - 0.03 in   Overcast
10:15 PM 42.8 °F 37.5 °F 41.0 °F 93% 29.67 in 10.0 mi South 9.2 mph - 0.01 in   Overcast
10:35 PM 42.8 °F 38.6 °F 41.0 °F 93% 29.66 in 8.0 mi South 6.9 mph - 0.01 in   Overcast
10:55 PM 42.8 °F 39.3 °F 41.0 °F 93% 29.66 in 9.0 mi South 5.8 mph - 0.01 in   Overcast
11:15 PM 42.8 °F 38.6 °F 41.0 °F 93% 29.66 in 10.0 mi South 6.9 mph - 0.01 in   Overcast
11:35 PM 42.8 °F 38.0 °F 41.0 °F 93% 29.65 in 10.0 mi South 8.1 mph - 0.01 in   Overcast
11:55 PM 42.8 °F 38.6 °F 41.0 °F 93% 29.65 in 10.0 mi SSW 6.9 mph - 0.02 in   Overcast